sensor_id;sensor_type;location;lat;lon;timestamp;pressure;altitude;pressure_sealevel;temperature;humidity
20624;BME280;10471;42.736;23.346;2024-01-11T00:00:35;96573.72;;;-6.23;100.00
20624;BME280;10471;42.736;23.346;2024-01-11T00:03:01;96564.00;;;-6.19;100.00
20624;BME280;10471;42.736;23.346;2024-01-11T00:05:26;96570.75;;;-6.18;100.00
20624;BME280;10471;42.736;23.346;2024-01-11T00:07:52;96564.94;;;-6.20;100.00
20624;BME280;10471;42.736;23.346;2024-01-11T00:10:17;96560.25;;;-6.25;100.00
20624;BME280;10471;42.736;23.346;2024-01-11T00:12:43;96571.47;;;-6.26;100.00
20624;BME280;10471;42.736;23.346;2024-01-11T00:15:09;96571.09;;;-6.31;100.00
20624;BME280;10471;42.736;23.346;2024-01-11T00:17:35;96564.91;;;-6.38;100.00
20624;BME280;10471;42.736;23.346;2024-01-11T00:20:01;96571.44;;;-6.43;100.00
20624;BME280;10471;42.736;23.346;2024-01-11T00:22:26;96561.75;;;-6.49;100.00
20624;BME280;10471;42.736;23.346;2024-01-11T00:24:52;96561.97;;;-6.43;100.00
20624;BME280;10471;42.736;23.346;2024-01-11T00:27:18;96553.88;;;-6.38;100.00
20624;BME280;10471;42.736;23.346;2024-01-11T00:29:43;96553.56;;;-6.35;100.00
20624;BME280;10471;42.736;23.346;2024-01-11T00:32:09;96549.00;;;-6.41;100.00
20624;BME280;10471;42.736;23.346;2024-01-11T00:34:34;96554.19;;;-6.50;100.00
20624;BME280;10471;42.736;23.346;2024-01-11T00:37:01;96555.41;;;-6.54;100.00
20624;BME280;10471;42.736;23.346;2024-01-11T00:39:26;96545.28;;;-6.47;100.00
20624;BME280;10471;42.736;23.346;2024-01-11T00:41:52;96555.53;;;-6.47;100.00
20624;BME280;10471;42.736;23.346;2024-01-11T00:44:17;96543.84;;;-6.58;100.00
20624;BME280;10471;42.736;23.346;2024-01-11T00:46:42;96548.97;;;-6.58;100.00
20624;BME280;10471;42.736;23.346;2024-01-11T00:49:08;96549.66;;;-6.56;100.00
20624;BME280;10471;42.736;23.346;2024-01-11T00:51:33;96547.34;;;-6.59;100.00
20624;BME280;10471;42.736;23.346;2024-01-11T00:53:58;96544.16;;;-6.61;100.00
20624;BME280;10471;42.736;23.346;2024-01-11T00:56:24;96542.38;;;-6.61;100.00
20624;BME280;10471;42.736;23.346;2024-01-11T00:58:49;96541.06;;;-6.65;100.00
20624;BME280;10471;42.736;23.346;2024-01-11T01:01:14;96537.97;;;-6.68;100.00
20624;BME280;10471;42.736;23.346;2024-01-11T01:03:40;96532.47;;;-6.73;100.00
20624;BME280;10471;42.736;23.346;2024-01-11T01:06:06;96539.47;;;-6.75;100.00
20624;BME280;10471;42.736;23.346;2024-01-11T01:08:31;96535.44;;;-6.78;100.00
20624;BME280;10471;42.736;23.346;2024-01-11T01:10:57;96534.13;;;-6.82;100.00
20624;BME280;10471;42.736;23.346;2024-01-11T01:13:22;96534.13;;;-6.82;100.00
20624;BME280;10471;42.736;23.346;2024-01-11T01:15:48;96531.69;;;-6.83;100.00
20624;BME280;10471;42.736;23.346;2024-01-11T01:18:13;96524.97;;;-6.84;100.00
20624;BME280;10471;42.736;23.346;2024-01-11T01:20:39;96530.75;;;-6.82;100.00
20624;BME280;10471;42.736;23.346;2024-01-11T01:23:04;96530.22;;;-6.86;100.00
20624;BME280;10471;42.736;23.346;2024-01-11T01:25:29;96526.84;;;-6.86;100.00
20624;BME280;10471;42.736;23.346;2024-01-11T01:27:55;96534.16;;;-6.91;100.00
20624;BME280;10471;42.736;23.346;2024-01-11T01:30:21;96531.19;;;-6.96;100.00
20624;BME280;10471;42.736;23.346;2024-01-11T01:32:46;96531.19;;;-6.96;100.00
20624;BME280;10471;42.736;23.346;2024-01-11T01:35:12;96527.59;;;-7.03;100.00
20624;BME280;10471;42.736;23.346;2024-01-11T01:37:37;96523.44;;;-7.04;100.00
20624;BME280;10471;42.736;23.346;2024-01-11T01:40:03;96527.44;;;-6.92;100.00
20624;BME280;10471;42.736;23.346;2024-01-11T01:42:28;96513.00;;;-6.93;100.00
20624;BME280;10471;42.736;23.346;2024-01-11T01:44:54;96506.97;;;-6.92;100.00
20624;BME280;10471;42.736;23.346;2024-01-11T01:47:19;96511.41;;;-6.94;100.00
20624;BME280;10471;42.736;23.346;2024-01-11T01:49:46;96505.91;;;-6.99;100.00
20624;BME280;10471;42.736;23.346;2024-01-11T01:52:13;96519.88;;;-6.94;100.00
20624;BME280;10471;42.736;23.346;2024-01-11T01:54:39;96500.22;;;-6.93;100.00
20624;BME280;10471;42.736;23.346;2024-01-11T01:57:07;96508.84;;;-6.94;100.00
20624;BME280;10471;42.736;23.346;2024-01-11T01:59:34;96494.16;;;-6.92;100.00
20624;BME280;10471;42.736;23.346;2024-01-11T02:02:00;96499.84;;;-6.98;100.00
20624;BME280;10471;42.736;23.346;2024-01-11T02:04:26;96498.91;;;-7.07;100.00
20624;BME280;10471;42.736;23.346;2024-01-11T02:06:53;96491.38;;;-7.08;100.00
20624;BME280;10471;42.736;23.346;2024-01-11T02:09:20;96493.94;;;-7.08;100.00
20624;BME280;10471;42.736;23.346;2024-01-11T02:11:46;96494.59;;;-7.06;100.00
20624;BME280;10471;42.736;23.346;2024-01-11T02:14:11;96486.53;;;-7.11;100.00
20624;BME280;10471;42.736;23.346;2024-01-11T02:16:37;96483.31;;;-7.13;100.00
20624;BME280;10471;42.736;23.346;2024-01-11T02:19:04;96477.78;;;-7.18;100.00
20624;BME280;10471;42.736;23.346;2024-01-11T02:21:32;96479.03;;;-7.22;100.00
20624;BME280;10471;42.736;23.346;2024-01-11T02:24:04;96483.88;;;-7.19;100.00
20624;BME280;10471;42.736;23.346;2024-01-11T02:26:30;96480.25;;;-7.16;100.00
20624;BME280;10471;42.736;23.346;2024-01-11T02:28:56;96490.03;;;-7.12;100.00
20624;BME280;10471;42.736;23.346;2024-01-11T02:31:22;96486.81;;;-7.14;100.00
20624;BME280;10471;42.736;23.346;2024-01-11T02:33:47;96487.09;;;-7.17;100.00
20624;BME280;10471;42.736;23.346;2024-01-11T02:36:13;96483.22;;;-7.21;100.00
20624;BME280;10471;42.736;23.346;2024-01-11T02:38:41;96483.50;;;-7.24;100.00
20624;BME280;10471;42.736;23.346;2024-01-11T02:41:07;96482.03;;;-7.26;100.00
20624;BME280;10471;42.736;23.346;2024-01-11T02:43:33;96479.19;;;-7.33;100.00
20624;BME280;10471;42.736;23.346;2024-01-11T02:46:01;96487.97;;;-7.35;100.00
20624;BME280;10471;42.736;23.346;2024-01-11T02:48:28;96478.81;;;-7.38;100.00
20624;BME280;10471;42.736;23.346;2024-01-11T02:50:55;96480.72;;;-7.40;100.00
20624;BME280;10471;42.736;23.346;2024-01-11T02:53:21;96466.72;;;-7.45;100.00
20624;BME280;10471;42.736;23.346;2024-01-11T02:55:46;96474.53;;;-7.47;100.00
20624;BME280;10471;42.736;23.346;2024-01-11T02:58:12;96474.00;;;-7.50;100.00
20624;BME280;10471;42.736;23.346;2024-01-11T03:00:37;96469.19;;;-7.53;100.00
20624;BME280;10471;42.736;23.346;2024-01-11T03:03:03;96474.03;;;-7.60;100.00
20624;BME280;10471;42.736;23.346;2024-01-11T03:05:28;96477.78;;;-7.54;100.00
20624;BME280;10471;42.736;23.346;2024-01-11T03:07:53;96478.19;;;-7.59;100.00
20624;BME280;10471;42.736;23.346;2024-01-11T03:10:19;96477.53;;;-7.61;100.00
20624;BME280;10471;42.736;23.346;2024-01-11T03:12:44;96473.38;;;-7.62;100.00
20624;BME280;10471;42.736;23.346;2024-01-11T03:15:09;96471.06;;;-7.65;100.00
20624;BME280;10471;42.736;23.346;2024-01-11T03:17:35;96471.06;;;-7.65;100.00
20624;BME280;10471;42.736;23.346;2024-01-11T03:20:00;96464.06;;;-7.63;100.00
20624;BME280;10471;42.736;23.346;2024-01-11T03:22:26;96470.81;;;-7.62;100.00
20624;BME280;10471;42.736;23.346;2024-01-11T03:24:51;96476.06;;;-7.63;100.00
20624;BME280;10471;42.736;23.346;2024-01-11T03:27:17;96471.34;;;-7.68;100.00
20624;BME280;10471;42.736;23.346;2024-01-11T03:29:42;96467.31;;;-7.70;100.00
20624;BME280;10471;42.736;23.346;2024-01-11T03:32:07;96463.81;;;-7.69;100.00
20624;BME280;10471;42.736;23.346;2024-01-11T03:34:33;96468.13;;;-7.70;100.00
20624;BME280;10471;42.736;23.346;2024-01-11T03:36:58;96461.41;;;-7.71;100.00
20624;BME280;10471;42.736;23.346;2024-01-11T03:39:25;96463.00;;;-7.70;100.00
20624;BME280;10471;42.736;23.346;2024-01-11T03:41:50;96458.72;;;-7.69;100.00
20624;BME280;10471;42.736;23.346;2024-01-11T03:44:16;96459.25;;;-7.75;100.00
20624;BME280;10471;42.736;23.346;2024-01-11T03:46:41;96457.38;;;-7.73;100.00
20624;BME280;10471;42.736;23.346;2024-01-11T03:49:07;96450.13;;;-7.78;100.00
20624;BME280;10471;42.736;23.346;2024-01-11T03:51:34;96455.78;;;-7.83;100.00
20624;BME280;10471;42.736;23.346;2024-01-11T03:53:59;96455.22;;;-7.87;100.00
20624;BME280;10471;42.736;23.346;2024-01-11T03:56:25;96447.16;;;-7.82;100.00
20624;BME280;10471;42.736;23.346;2024-01-11T03:58:50;96446.63;;;-7.77;100.00
20624;BME280;10471;42.736;23.346;2024-01-11T04:01:16;96439.06;;;-7.69;100.00
20624;BME280;10471;42.736;23.346;2024-01-11T04:03:41;96444.16;;;-7.69;100.00
20624;BME280;10471;42.736;23.346;2024-01-11T04:06:07;96445.00;;;-7.68;100.00
20624;BME280;10471;42.736;23.346;2024-01-11T04:08:32;96449.56;;;-7.72;100.00
20624;BME280;10471;42.736;23.346;2024-01-11T04:10:58;96440.13;;;-7.71;100.00
20624;BME280;10471;42.736;23.346;2024-01-11T04:13:26;96443.38;;;-7.69;100.00
20624;BME280;10471;42.736;23.346;2024-01-11T04:15:51;96437.72;;;-7.73;100.00
20624;BME280;10471;42.736;23.346;2024-01-11T04:18:17;96438.81;;;-7.75;100.00
20624;BME280;10471;42.736;23.346;2024-01-11T04:20:42;96440.56;;;-7.76;100.00
20624;BME280;10471;42.736;23.346;2024-01-11T04:23:07;96435.84;;;-7.80;100.00
20624;BME280;10471;42.736;23.346;2024-01-11T04:25:33;96432.91;;;-7.85;100.00
20624;BME280;10471;42.736;23.346;2024-01-11T04:27:58;96437.19;;;-7.85;100.00
20624;BME280;10471;42.736;23.346;2024-01-11T04:30:23;96430.50;;;-7.86;100.00
20624;BME280;10471;42.736;23.346;2024-01-11T04:32:49;96441.66;;;-7.87;100.00
20624;BME280;10471;42.736;23.346;2024-01-11T04:35:14;96437.19;;;-7.85;100.00
20624;BME280;10471;42.736;23.346;2024-01-11T04:37:39;96439.09;;;-7.87;100.00
20624;BME280;10471;42.736;23.346;2024-01-11T04:40:06;96438.72;;;-7.92;100.00
20624;BME280;10471;42.736;23.346;2024-01-11T04:42:32;96444.66;;;-8.01;100.00
20624;BME280;10471;42.736;23.346;2024-01-11T04:44:57;96444.66;;;-8.01;100.00
20624;BME280;10471;42.736;23.346;2024-01-11T04:47:23;96442.09;;;-8.01;100.00
20624;BME280;10471;42.736;23.346;2024-01-11T04:49:48;96446.38;;;-8.02;100.00
20624;BME280;10471;42.736;23.346;2024-01-11T04:52:13;96443.28;;;-8.05;100.00
20624;BME280;10471;42.736;23.346;2024-01-11T04:54:39;96451.50;;;-8.02;100.00
20624;BME280;10471;42.736;23.346;2024-01-11T04:57:04;96442.34;;;-8.04;100.00
20624;BME280;10471;42.736;23.346;2024-01-11T04:59:30;96445.31;;;-7.99;100.00
20624;BME280;10471;42.736;23.346;2024-01-11T05:01:56;96446.13;;;-7.99;100.00
20624;BME280;10471;42.736;23.346;2024-01-11T05:04:21;96438.47;;;-7.99;100.00
20624;BME280;10471;42.736;23.346;2024-01-11T05:06:46;96440.47;;;-8.02;100.00
20624;BME280;10471;42.736;23.346;2024-01-11T05:09:12;96442.34;;;-8.04;100.00
20624;BME280;10471;42.736;23.346;2024-01-11T05:11:37;96447.59;;;-8.06;100.00
20624;BME280;10471;42.736;23.346;2024-01-11T05:14:03;96448.00;;;-8.10;100.00
20624;BME280;10471;42.736;23.346;2024-01-11T05:16:28;96446.38;;;-8.11;100.00
20624;BME280;10471;42.736;23.346;2024-01-11T05:18:55;96437.78;;;-8.10;100.00
20624;BME280;10471;42.736;23.346;2024-01-11T05:21:22;96436.47;;;-8.14;100.00
20624;BME280;10471;42.736;23.346;2024-01-11T05:23:48;96441.88;;;-8.17;100.00
20624;BME280;10471;42.736;23.346;2024-01-11T05:26:17;96426.78;;;-8.20;100.00
20624;BME280;10471;42.736;23.346;2024-01-11T05:28:43;96428.94;;;-8.25;100.00
20624;BME280;10471;42.736;23.346;2024-01-11T05:31:13;96429.22;;;-8.28;100.00
20624;BME280;10471;42.736;23.346;2024-01-11T05:33:43;96431.38;;;-8.33;100.00
20624;BME280;10471;42.736;23.346;2024-01-11T05:36:08;96423.31;;;-8.38;100.00
20624;BME280;10471;42.736;23.346;2024-01-11T05:38:34;96431.50;;;-8.44;100.00
20624;BME280;10471;42.736;23.346;2024-01-11T05:41:00;96427.34;;;-8.45;100.00
20624;BME280;10471;42.736;23.346;2024-01-11T05:43:25;96424.00;;;-8.45;100.00
20624;BME280;10471;42.736;23.346;2024-01-11T05:45:51;96422.53;;;-8.48;100.00
20624;BME280;10471;42.736;23.346;2024-01-11T05:48:17;96408.00;;;-8.47;100.00
20624;BME280;10471;42.736;23.346;2024-01-11T05:50:43;96417.53;;;-8.49;100.00
20624;BME280;10471;42.736;23.346;2024-01-11T05:53:09;96419.28;;;-8.50;100.00
20624;BME280;10471;42.736;23.346;2024-01-11T05:55:35;96413.25;;;-8.49;100.00
20624;BME280;10471;42.736;23.346;2024-01-11T05:58:00;96407.97;;;-8.57;100.00
20624;BME280;10471;42.736;23.346;2024-01-11T06:00:26;96417.41;;;-8.48;100.00
20624;BME280;10471;42.736;23.346;2024-01-11T06:02:51;96410.41;;;-8.46;100.00
20624;BME280;10471;42.736;23.346;2024-01-11T06:05:17;96413.34;;;-8.41;100.00
20624;BME280;10471;42.736;23.346;2024-01-11T06:07:42;96410.41;;;-8.46;100.00
20624;BME280;10471;42.736;23.346;2024-01-11T06:10:08;96405.84;;;-8.42;100.00
20624;BME280;10471;42.736;23.346;2024-01-11T06:12:35;96401.53;;;-8.42;100.00
20624;BME280;10471;42.736;23.346;2024-01-11T06:15:01;96397.22;;;-8.32;100.00
20624;BME280;10471;42.736;23.346;2024-01-11T06:17:26;96403.69;;;-8.28;100.00
20624;BME280;10471;42.736;23.346;2024-01-11T06:19:52;96396.44;;;-8.23;100.00
20624;BME280;10471;42.736;23.346;2024-01-11T06:22:17;96390.38;;;-8.22;100.00
20624;BME280;10471;42.736;23.346;2024-01-11T06:24:43;96397.47;;;-8.16;100.00
20624;BME280;10471;42.736;23.346;2024-01-11T06:27:08;96391.78;;;-8.10;100.00
20624;BME280;10471;42.736;23.346;2024-01-11T06:29:34;96399.84;;;-8.05;100.00
20624;BME280;10471;42.736;23.346;2024-01-11T06:31:59;96395.00;;;-7.99;100.00
20624;BME280;10471;42.736;23.346;2024-01-11T06:34:24;96394.59;;;-7.94;100.00
20624;BME280;10471;42.736;23.346;2024-01-11T06:36:50;96384.75;;;-7.89;100.00
20624;BME280;10471;42.736;23.346;2024-01-11T06:39:15;96383.53;;;-7.85;100.00
20624;BME280;10471;42.736;23.346;2024-01-11T06:41:41;96381.38;;;-7.80;100.00
20624;BME280;10471;42.736;23.346;2024-01-11T06:44:06;96382.03;;;-7.78;100.00
20624;BME280;10471;42.736;23.346;2024-01-11T06:46:31;96382.56;;;-7.75;100.00
20624;BME280;10471;42.736;23.346;2024-01-11T06:48:57;96389.81;;;-7.71;100.00
20624;BME280;10471;42.736;23.346;2024-01-11T06:51:22;96389.91;;;-7.63;100.00
20624;BME280;10471;42.736;23.346;2024-01-11T06:53:49;96379.00;;;-7.55;100.00
20624;BME280;10471;42.736;23.346;2024-01-11T06:56:18;96383.41;;;-7.48;100.00
20624;BME280;10471;42.736;23.346;2024-01-11T06:58:46;96381.91;;;-7.41;100.00
20624;BME280;10471;42.736;23.346;2024-01-11T07:01:11;96376.75;;;-7.31;100.00
20624;BME280;10471;42.736;23.346;2024-01-11T07:03:37;96385.59;;;-7.26;100.00
20624;BME280;10471;42.736;23.346;2024-01-11T07:06:03;96385.97;;;-7.21;100.00
20624;BME280;10471;42.736;23.346;2024-01-11T07:08:29;96378.41;;;-7.13;100.00
20624;BME280;10471;42.736;23.346;2024-01-11T07:10:55;96383.06;;;-7.09;100.00
20624;BME280;10471;42.736;23.346;2024-01-11T07:13:21;96379.78;;;-7.01;100.00
20624;BME280;10471;42.736;23.346;2024-01-11T07:15:46;96388.09;;;-6.90;100.00
20624;BME280;10471;42.736;23.346;2024-01-11T07:18:13;96382.25;;;-6.82;100.00
20624;BME280;10471;42.736;23.346;2024-01-11T07:20:38;96379.34;;;-6.70;100.00
20624;BME280;10471;42.736;23.346;2024-01-11T07:23:04;96372.16;;;-6.66;100.00
20624;BME280;10471;42.736;23.346;2024-01-11T07:25:29;96370.63;;;-6.59;100.00
20624;BME280;10471;42.736;23.346;2024-01-11T07:27:55;96374.84;;;-6.50;100.00
20624;BME280;10471;42.736;23.346;2024-01-11T07:30:21;96378.44;;;-6.44;100.00
20624;BME280;10471;42.736;23.346;2024-01-11T07:32:46;96375.59;;;-6.41;100.00
20624;BME280;10471;42.736;23.346;2024-01-11T07:35:13;96376.31;;;-6.31;100.00
20624;BME280;10471;42.736;23.346;2024-01-11T07:37:39;96374.75;;;-6.24;100.00
20624;BME280;10471;42.736;23.346;2024-01-11T07:40:06;96375.34;;;-6.30;100.00
20624;BME280;10471;42.736;23.346;2024-01-11T07:42:39;96376.81;;;-6.27;100.00
20624;BME280;10471;42.736;23.346;2024-01-11T07:45:05;96372.19;;;-6.24;100.00
20624;BME280;10471;42.736;23.346;2024-01-11T07:47:31;96364.59;;;-6.16;100.00
20624;BME280;10471;42.736;23.346;2024-01-11T07:49:57;96371.72;;;-6.02;100.00
20624;BME280;10471;42.736;23.346;2024-01-11T07:52:22;96365.09;;;-5.87;100.00
20624;BME280;10471;42.736;23.346;2024-01-11T07:54:48;96354.56;;;-5.84;100.00
20624;BME280;10471;42.736;23.346;2024-01-11T07:57:13;96344.00;;;-5.73;100.00
20624;BME280;10471;42.736;23.346;2024-01-11T07:59:38;96349.66;;;-5.62;100.00
20624;BME280;10471;42.736;23.346;2024-01-11T08:02:04;96349.75;;;-5.46;100.00
20624;BME280;10471;42.736;23.346;2024-01-11T08:04:31;96351.22;;;-5.35;100.00
20624;BME280;10471;42.736;23.346;2024-01-11T08:06:56;96349.34;;;-5.25;100.00
20624;BME280;10471;42.736;23.346;2024-01-11T08:09:27;96349.88;;;-5.14;100.00
20624;BME280;10471;42.736;23.346;2024-01-11T08:11:53;96349.91;;;-5.06;100.00
20624;BME280;10471;42.736;23.346;2024-01-11T08:14:21;96340.44;;;-4.98;100.00
20624;BME280;10471;42.736;23.346;2024-01-11T08:16:47;96339.34;;;-4.95;100.00
20624;BME280;10471;42.736;23.346;2024-01-11T08:19:12;96331.63;;;-4.87;100.00
20624;BME280;10471;42.736;23.346;2024-01-11T08:21:42;96333.78;;;-4.75;100.00
20624;BME280;10471;42.736;23.346;2024-01-11T08:24:07;96329.25;;;-4.73;100.00
20624;BME280;10471;42.736;23.346;2024-01-11T08:26:33;96334.75;;;-4.60;100.00
20624;BME280;10471;42.736;23.346;2024-01-11T08:28:58;96331.88;;;-4.49;100.00
20624;BME280;10471;42.736;23.346;2024-01-11T08:31:24;96332.53;;;-4.39;100.00
20624;BME280;10471;42.736;23.346;2024-01-11T08:33:49;96335.56;;;-4.28;100.00
20624;BME280;10471;42.736;23.346;2024-01-11T08:36:15;96328.66;;;-4.19;100.00
20624;BME280;10471;42.736;23.346;2024-01-11T08:45:24;96327.34;;;-3.91;100.00
20624;BME280;10471;42.736;23.346;2024-01-11T08:47:50;96334.69;;;-3.81;100.00
20624;BME280;10471;42.736;23.346;2024-01-11T08:50:16;96320.53;;;-3.69;100.00
20624;BME280;10471;42.736;23.346;2024-01-11T08:52:42;96317.91;;;-3.53;100.00
20624;BME280;10471;42.736;23.346;2024-01-11T08:55:08;96308.88;;;-3.49;100.00
20624;BME280;10471;42.736;23.346;2024-01-11T08:57:34;96314.31;;;-3.36;100.00
20624;BME280;10471;42.736;23.346;2024-01-11T09:00:03;96307.13;;;-3.18;100.00
20624;BME280;10471;42.736;23.346;2024-01-11T09:02:29;96310.31;;;-3.08;100.00
20624;BME280;10471;42.736;23.346;2024-01-11T09:04:54;96294.47;;;-2.97;100.00
20624;BME280;10471;42.736;23.346;2024-01-11T09:07:20;96293.91;;;-2.85;100.00
20624;BME280;10471;42.736;23.346;2024-01-11T09:09:45;96288.22;;;-2.72;100.00
20624;BME280;10471;42.736;23.346;2024-01-11T09:12:11;96291.34;;;-2.85;100.00
20624;BME280;10471;42.736;23.346;2024-01-11T09:14:36;96285.78;;;-2.96;100.00
20624;BME280;10471;42.736;23.346;2024-01-11T09:17:01;96282.25;;;-2.73;100.00
20624;BME280;10471;42.736;23.346;2024-01-11T09:19:27;96282.41;;;-2.74;100.00
20624;BME280;10471;42.736;23.346;2024-01-11T09:21:52;96279.38;;;-2.78;100.00
20624;BME280;10471;42.736;23.346;2024-01-11T09:24:18;96270.69;;;-2.77;100.00
20624;BME280;10471;42.736;23.346;2024-01-11T09:26:44;96269.19;;;-2.49;100.00
20624;BME280;10471;42.736;23.346;2024-01-11T09:29:09;96264.81;;;-2.49;100.00
20624;BME280;10471;42.736;23.346;2024-01-11T09:31:34;96270.19;;;-2.36;100.00
20624;BME280;10471;42.736;23.346;2024-01-11T09:34:00;96265.94;;;-2.29;100.00
20624;BME280;10471;42.736;23.346;2024-01-11T09:36:25;96255.63;;;-2.29;100.00
20624;BME280;10471;42.736;23.346;2024-01-11T09:38:51;96252.91;;;-2.13;100.00
20624;BME280;10471;42.736;23.346;2024-01-11T09:41:17;96243.47;;;-2.06;100.00
20624;BME280;10471;42.736;23.346;2024-01-11T09:43:42;96247.56;;;-2.11;100.00
20624;BME280;10471;42.736;23.346;2024-01-11T09:46:09;96233.84;;;-2.12;100.00
20624;BME280;10471;42.736;23.346;2024-01-11T09:48:36;96229.41;;;-2.18;100.00
20624;BME280;10471;42.736;23.346;2024-01-11T09:51:03;96224.03;;;-2.45;100.00
20624;BME280;10471;42.736;23.346;2024-01-11T09:53:32;96216.88;;;-2.21;100.00
20624;BME280;10471;42.736;23.346;2024-01-11T09:55:59;96222.50;;;-2.40;100.00
20624;BME280;10471;42.736;23.346;2024-01-11T09:58:25;96209.72;;;-2.19;100.00
20624;BME280;10471;42.736;23.346;2024-01-11T10:00:54;96214.00;;;-2.11;100.00
20624;BME280;10471;42.736;23.346;2024-01-11T10:03:20;96212.06;;;-1.95;100.00
20624;BME280;10471;42.736;23.346;2024-01-11T10:05:47;96206.63;;;-1.71;100.00
20624;BME280;10471;42.736;23.346;2024-01-11T10:08:14;96201.47;;;-1.71;100.00
20624;BME280;10471;42.736;23.346;2024-01-11T10:10:40;96192.06;;;-1.43;100.00
20624;BME280;10471;42.736;23.346;2024-01-11T10:13:06;96191.88;;;-1.28;100.00
20624;BME280;10471;42.736;23.346;2024-01-11T10:15:31;96181.88;;;-1.31;100.00
20624;BME280;10471;42.736;23.346;2024-01-11T10:17:56;96178.34;;;-1.09;100.00
20624;BME280;10471;42.736;23.346;2024-01-11T10:20:22;96173.13;;;-0.94;100.00
20624;BME280;10471;42.736;23.346;2024-01-11T10:22:49;96172.31;;;-0.95;100.00
20624;BME280;10471;42.736;23.346;2024-01-11T10:25:16;96168.38;;;-0.91;100.00
20624;BME280;10471;42.736;23.346;2024-01-11T10:27:44;96156.19;;;-0.76;100.00
20624;BME280;10471;42.736;23.346;2024-01-11T10:30:11;96156.28;;;-0.63;100.00
20624;BME280;10471;42.736;23.346;2024-01-11T10:32:41;96155.31;;;-0.83;100.00
20624;BME280;10471;42.736;23.346;2024-01-11T10:35:06;96151.75;;;-0.82;100.00
20624;BME280;10471;42.736;23.346;2024-01-11T10:37:32;96143.47;;;-0.71;100.00
20624;BME280;10471;42.736;23.346;2024-01-11T10:40:03;96134.34;;;-0.67;100.00
20624;BME280;10471;42.736;23.346;2024-01-11T10:42:31;96130.41;;;-0.63;100.00
20624;BME280;10471;42.736;23.346;2024-01-11T10:44:59;96135.22;;;-0.60;100.00
20624;BME280;10471;42.736;23.346;2024-01-11T10:47:30;96125.56;;;-0.45;100.00
20624;BME280;10471;42.736;23.346;2024-01-11T10:49:58;96127.50;;;-0.81;100.00
20624;BME280;10471;42.736;23.346;2024-01-11T10:52:34;96119.69;;;-0.60;100.00
20624;BME280;10471;42.736;23.346;2024-01-11T10:55:01;96108.09;;;-0.64;100.00
20624;BME280;10471;42.736;23.346;2024-01-11T10:57:29;96108.50;;;-0.33;100.00
20624;BME280;10471;42.736;23.346;2024-01-11T10:59:55;96101.59;;;-0.26;100.00
20624;BME280;10471;42.736;23.346;2024-01-11T11:02:22;96099.63;;;-0.24;100.00
20624;BME280;10471;42.736;23.346;2024-01-11T11:04:51;96090.09;;;-0.17;100.00
20624;BME280;10471;42.736;23.346;2024-01-11T11:07:18;96082.53;;;-0.12;100.00
20624;BME280;10471;42.736;23.346;2024-01-11T11:09:44;96076.66;;;0.06;100.00
20624;BME280;10471;42.736;23.346;2024-01-11T11:12:11;96064.59;;;0.39;100.00
20624;BME280;10471;42.736;23.346;2024-01-11T11:14:38;96058.47;;;0.53;100.00
20624;BME280;10471;42.736;23.346;2024-01-11T11:17:05;96054.50;;;0.57;100.00
20624;BME280;10471;42.736;23.346;2024-01-11T11:19:30;96047.75;;;0.69;100.00
20624;BME280;10471;42.736;23.346;2024-01-11T11:21:56;96034.97;;;0.74;100.00
20624;BME280;10471;42.736;23.346;2024-01-11T11:24:21;96037.16;;;0.64;100.00
20624;BME280;10471;42.736;23.346;2024-01-11T11:26:47;96030.97;;;0.91;100.00
20624;BME280;10471;42.736;23.346;2024-01-11T11:29:14;96025.81;;;0.97;100.00
20624;BME280;10471;42.736;23.346;2024-01-11T11:31:44;96024.81;;;1.05;100.00
20624;BME280;10471;42.736;23.346;2024-01-11T11:34:19;96017.19;;;1.23;100.00
20624;BME280;10471;42.736;23.346;2024-01-11T11:36:46;96008.03;;;1.27;100.00
20624;BME280;10471;42.736;23.346;2024-01-11T11:39:11;96004.84;;;1.18;100.00
20624;BME280;10471;42.736;23.346;2024-01-11T11:41:38;95996.59;;;1.47;100.00
20624;BME280;10471;42.736;23.346;2024-01-11T11:44:05;95997.34;;;1.60;100.00
20624;BME280;10471;42.736;23.346;2024-01-11T11:46:31;95992.16;;;1.60;100.00
20624;BME280;10471;42.736;23.346;2024-01-11T11:48:58;95989.34;;;1.68;100.00
20624;BME280;10471;42.736;23.346;2024-01-11T11:51:24;95987.47;;;1.88;100.00
20624;BME280;10471;42.736;23.346;2024-01-11T11:53:51;95985.44;;;1.96;100.00
20624;BME280;10471;42.736;23.346;2024-01-11T11:56:18;95977.59;;;2.03;100.00
20624;BME280;10471;42.736;23.346;2024-01-11T11:58:45;95978.78;;;2.07;100.00
20624;BME280;10471;42.736;23.346;2024-01-11T12:01:14;95967.91;;;2.23;100.00
20624;BME280;10471;42.736;23.346;2024-01-11T12:03:42;95962.84;;;1.97;100.00
20624;BME280;10471;42.736;23.346;2024-01-11T12:06:14;95958.81;;;2.01;100.00
20624;BME280;10471;42.736;23.346;2024-01-11T12:08:42;95950.03;;;2.33;100.00
20624;BME280;10471;42.736;23.346;2024-01-11T12:11:08;95947.03;;;2.36;100.00
20624;BME280;10471;42.736;23.346;2024-01-11T12:13:34;95943.53;;;2.48;100.00
20624;BME280;10471;42.736;23.346;2024-01-11T12:16:00;95942.13;;;2.76;100.00
20624;BME280;10471;42.736;23.346;2024-01-11T12:18:25;95931.28;;;2.55;100.00
20624;BME280;10471;42.736;23.346;2024-01-11T12:20:51;95928.81;;;2.66;100.00
20624;BME280;10471;42.736;23.346;2024-01-11T12:23:18;95927.19;;;2.65;100.00
20624;BME280;10471;42.736;23.346;2024-01-11T12:25:44;95922.78;;;2.66;100.00
20624;BME280;10471;42.736;23.346;2024-01-11T12:28:10;95916.97;;;2.88;100.00
20624;BME280;10471;42.736;23.346;2024-01-11T12:30:36;95904.88;;;3.00;100.00
20624;BME280;10471;42.736;23.346;2024-01-11T12:33:01;95910.22;;;2.87;100.00
20624;BME280;10471;42.736;23.346;2024-01-11T12:35:27;95902.84;;;3.02;100.00
20624;BME280;10471;42.736;23.346;2024-01-11T12:38:00;95897.06;;;3.00;100.00
20624;BME280;10471;42.736;23.346;2024-01-11T12:40:27;95899.53;;;3.13;100.00